Time;durP1;ratioP1;P1;durP2;ratioP2;P2;SDS_P1;SDS_P2;PMS_P1;PMS_P2;Temp;Humidity;BMP_temperature;BMP_pressure;BME280_temperature;BME280_humidity;BME280_pressure;Samples;Min_cycle;Max_cycle;Signal;HPM_P1;HPM_P2
2024/03/16 00:00:50;;;;;;;;;11.00;9.00;;;;;11.27;60.80;101246.97;146617;583;46021;-72
2024/03/16 00:03:48;;;;;;;;;10.00;8.00;;;;;11.18;61.11;101238.66;146616;652;46915;-79
2024/03/16 00:06:41;;;;;;;;;9.25;9.25;;;;;11.21;61.67;101241.44;146619;564;46011;-78
2024/03/16 00:09:40;;;;;;;;;6.00;6.00;;;;;11.20;61.19;101244.84;146615;627;46016;-75
2024/03/16 00:12:46;;;;;;;;;7.00;7.00;;;;;11.21;60.98;101233.66;146620;582;47010;-80
2024/03/16 00:15:55;;;;;;;;;7.75;6.75;;;;;11.23;60.35;101237.22;146615;734;47016;-79
2024/03/16 00:18:53;;;;;;;;;8.00;8.00;;;;;11.25;61.12;101238.22;146615;607;47012;-77
2024/03/16 00:21:52;;;;;;;;;8.00;8.00;;;;;11.31;60.88;101231.66;146616;581;47013;-77
2024/03/16 00:24:54;;;;;;;;;10.50;9.00;;;;;11.43;60.53;101240.94;146617;603;47020;-74
2024/03/16 00:27:49;;;;;;;;;12.25;9.25;;;;;11.48;60.42;101236.91;146615;592;47012;-78
2024/03/16 00:30:52;;;;;;;;;14.25;12.50;;;;;11.56;59.84;101238.25;146617;611;47021;-77
2024/03/16 00:33:49;;;;;;;;;14.00;13.00;;;;;11.57;59.37;101232.22;146613;591;47022;-77
2024/03/16 00:36:50;;;;;;;;;19.75;17.25;;;;;11.54;59.54;101237.25;146615;577;47021;-74
2024/03/16 00:39:58;;;;;;;;;17.50;15.00;;;;;11.54;59.28;101234.66;146615;670;47012;-75
2024/03/16 00:43:04;;;;;;;;;16.75;15.25;;;;;11.52;59.57;101234.53;146615;602;46020;-75
2024/03/16 00:46:00;;;;;;;;;17.25;14.25;;;;;11.47;59.43;101236.00;146612;643;46916;-74
2024/03/16 00:49:15;;;;;;;;;18.50;14.25;;;;;11.17;59.51;101187.56;146616;590;47010;-74
2024/03/16 00:52:21;;;;;;;;;16.25;16.25;;;;;11.42;58.95;101237.44;146615;594;46035;-74
2024/03/16 00:55:25;;;;;;;;;16.75;13.75;;;;;11.43;59.07;101243.53;146614;581;47010;-73
2024/03/16 00:58:30;;;;;;;;;;;;;;;;;;;;;
2024/03/16 01:01:34;;;;;;;;;;;;;;;;;;;;;
2024/03/16 01:04:36;;;;;;;;;16.25;13.00;;;;;11.31;60.23;101231.66;146607;569;47012;-78
2024/03/16 01:07:35;;;;;;;;;13.25;12.00;;;;;11.24;61.12;101229.50;146621;671;46012;-80
2024/03/16 01:10:30;;;;;;;;;13.00;12.25;;;;;11.21;60.86;101225.84;146616;613;46016;-75
2024/03/16 01:13:27;;;;;;;;;12.00;10.00;;;;;11.22;61.04;101225.06;146619;564;46023;-75
2024/03/16 01:16:20;;;;;;;;;10.75;10.75;;;;;11.20;61.07;101217.19;146614;615;46915;-77
2024/03/16 01:19:16;;;;;;;;;11.25;10.75;;;;;11.18;60.68;101215.28;146618;615;46010;-79
2024/03/16 01:22:13;;;;;;;;;10.00;10.00;;;;;11.15;60.46;101220.31;146618;564;47013;-75
2024/03/16 01:25:15;;;;;;;;;10.00;10.00;;;;;11.13;60.92;101215.06;146615;564;46010;-72
2024/03/16 01:28:18;;;;;;;;;9.50;8.25;;;;;11.09;60.70;101220.88;146619;625;46012;-73
2024/03/16 01:31:14;;;;;;;;;12.00;9.50;;;;;11.03;61.61;101221.44;146617;625;47020;-75
2024/03/16 01:34:11;;;;;;;;;11.00;9.00;;;;;10.98;61.38;101228.03;146613;564;47916;-74
2024/03/16 01:37:12;;;;;;;;;10.25;10.00;;;;;10.94;61.61;101230.37;146618;579;46021;-77
2024/03/16 01:40:09;;;;;;;;;12.00;12.00;;;;;10.96;61.85;101236.53;146611;661;46016;-77
2024/03/16 01:43:09;;;;;;;;;10.00;9.25;;;;;10.97;61.91;101234.03;146621;585;47011;-75
2024/03/16 01:46:17;;;;;;;;;13.00;10.75;;;;;10.96;61.50;101232.25;146621;588;47012;-76
2024/03/16 01:49:18;;;;;;;;;10.50;9.25;;;;;10.96;61.46;101231.34;146619;594;45020;-75
2024/03/16 01:52:18;;;;;;;;;13.00;9.50;;;;;10.97;61.88;101236.66;146615;585;46016;-74
2024/03/16 01:55:16;;;;;;;;;12.25;10.50;;;;;10.98;61.58;101235.81;146621;563;46020;-76
2024/03/16 01:58:15;;;;;;;;;10.75;9.50;;;;;10.93;61.81;101236.34;146616;585;46016;-77
2024/03/16 02:01:22;;;;;;;;;12.75;11.00;;;;;10.89;60.76;101243.06;146618;602;46010;-82
2024/03/16 02:04:28;;;;;;;;;12.50;11.50;;;;;10.88;61.72;101254.28;146615;612;46016;-82
2024/03/16 02:07:22;;;;;;;;;16.25;14.25;;;;;10.85;62.15;101248.91;146620;608;46010;-82
2024/03/16 02:10:45;;;;;;;;;10.25;9.25;;;;;10.85;62.33;101249.78;146617;605;47016;-81
2024/03/16 02:13:41;;;;;;;;;10.75;9.00;;;;;10.82;63.49;101248.72;146622;588;46011;-80
2024/03/16 02:16:54;;;;;;;;;9.75;8.75;;;;;10.84;62.84;101247.09;146618;589;46913;-79
2024/03/16 02:19:54;;;;;;;;;12.00;9.25;;;;;10.82;63.51;101253.91;146622;737;46010;-79
2024/03/16 02:22:49;;;;;;;;;8.00;8.00;;;;;10.82;63.29;101247.00;146618;634;46016;-71
2024/03/16 02:25:59;;;;;;;;;11.75;8.00;;;;;10.82;63.51;101248.72;146620;614;46010;-76
2024/03/16 02:29:04;;;;;;;;;11.75;10.00;;;;;10.82;62.70;101249.63;146617;599;46016;-75
2024/03/16 02:32:02;;;;;;;;;8.50;6.25;;;;;10.85;63.71;101259.28;146619;569;46036;-75
2024/03/16 02:35:04;;;;;;;;;8.50;8.50;;;;;10.84;63.47;101258.38;146617;564;46021;-74
2024/03/16 02:38:07;;;;;;;;;7.50;7.00;;;;;10.82;64.19;101259.09;146622;736;46020;-73
2024/03/16 02:40:59;;;;;;;;;8.25;7.75;;;;;10.83;64.25;101258.28;146615;698;46016;-72
2024/03/16 02:44:13;;;;;;;;;8.00;6.75;;;;;10.86;64.48;101255.88;146620;689;46021;-76
2024/03/16 02:47:20;;;;;;;;;8.50;8.50;;;;;10.85;63.62;101248.91;146617;604;46016;-76
2024/03/16 02:50:18;;;;;;;;;10.00;9.00;;;;;10.78;64.83;101251.94;146620;634;46021;-76
2024/03/16 02:53:14;;;;;;;;;8.50;8.50;;;;;10.71;65.09;101262.75;146615;624;46016;-75
2024/03/16 02:56:18;;;;;;;;;10.75;8.00;;;;;10.65;65.02;101268.47;146619;567;46020;-82
2024/03/16 02:59:40;;;;;;;;;11.50;11.00;;;;;10.58;63.84;101264.59;146617;625;46911;-77
2024/03/16 03:02:41;;;;;;;;;10.50;9.50;;;;;10.53;65.38;101265.13;146617;577;47010;-80
2024/03/16 03:05:42;;;;;;;;;11.00;10.00;;;;;10.52;65.20;101269.44;146620;564;46013;-80
2024/03/16 03:08:38;;;;;;;;;9.00;8.50;;;;;10.48;65.62;101262.28;146621;576;46010;-78
2024/03/16 03:11:41;;;;;;;;;13.00;10.25;;;;;10.43;65.80;101268.88;146617;588;46015;-72
2024/03/16 03:14:37;;;;;;;;;14.00;13.00;;;;;10.40;65.79;101281.66;146615;599;46012;-73
2024/03/16 03:17:29;;;;;;;;;12.50;11.75;;;;;10.35;65.45;101275.31;146617;689;45016;-72
2024/03/16 03:20:28;;;;;;;;;13.50;11.75;;;;;10.30;65.87;101266.34;146617;592;47010;-77
2024/03/16 03:23:23;;;;;;;;;14.75;9.00;;;;;10.27;66.56;101282.59;146614;632;46032;-76
2024/03/16 03:26:27;;;;;;;;;10.75;10.75;;;;;10.21;66.41;101287.38;146618;585;46021;-76
2024/03/16 03:29:23;;;;;;;;;10.00;9.25;;;;;10.16;66.66;101284.53;146614;565;47014;-74
2024/03/16 03:32:25;;;;;;;;;10.50;10.25;;;;;10.17;66.60;101283.69;146622;589;46020;-74
2024/03/16 03:35:36;;;;;;;;;13.50;12.00;;;;;10.23;66.78;101285.78;146616;615;47012;-74
2024/03/16 03:38:41;;;;;;;;;10.50;9.50;;;;;10.25;66.25;101283.28;146616;598;46020;-75
2024/03/16 03:41:46;;;;;;;;;13.25;11.75;;;;;10.12;65.33;101279.97;146615;584;46017;-71
2024/03/16 03:45:00;;;;;;;;;10.25;9.25;;;;;10.01;65.92;101283.56;146619;577;46020;-72
2024/03/16 03:51:12;;;;;;;;;15.75;14.75;;;;;9.93;67.35;101297.72;146619;588;46010;-70
2024/03/16 03:54:07;;;;;;;;;13.50;12.00;;;;;9.88;67.51;101294.84;146613;582;46016;-71
2024/03/16 03:57:10;;;;;;;;;17.00;13.75;;;;;9.88;66.77;101296.56;146616;570;46021;-70
2024/03/16 04:00:19;;;;;;;;;13.00;13.00;;;;;7.85;65.84;100937.03;146614;602;46016;-71
2024/03/16 04:03:21;;;;;;;;;11.00;10.00;;;;;8.96;66.78;101115.59;146617;581;46011;-71
2024/03/16 04:06:33;;;;;;;;;14.25;13.00;;;;;9.95;66.79;101288.38;146617;612;46016;-80
2024/03/16 04:09:37;;;;;;;;;13.75;12.00;;;;;9.94;66.24;101291.75;146616;591;47010;-79
2024/03/16 04:12:31;;;;;;;;;14.75;14.00;;;;;9.93;66.99;101289.94;146614;611;46016;-80
2024/03/16 04:15:41;;;;;;;;;15.75;12.75;;;;;8.79;65.69;101086.09;146619;589;46010;-80
2024/03/16 04:18:45;;;;;;;;;14.75;12.50;;;;;9.94;66.08;101289.19;146618;640;46016;-78
2024/03/16 04:21:39;;;;;;;;;13.50;13.00;;;;;9.88;67.14;101294.84;146616;586;46010;-80
2024/03/16 04:24:34;;;;;;;;;11.75;11.75;;;;;9.83;67.90;101292.78;146614;671;46016;-77
2024/03/16 04:27:43;;;;;;;;;13.50;13.00;;;;;9.79;67.44;101293.38;146614;608;46020;-75
2024/03/16 04:30:45;;;;;;;;;16.50;11.50;;;;;9.77;67.80;101290.69;146616;572;46016;-77
2024/03/16 04:33:52;;;;;;;;;14.25;12.00;;;;;9.81;66.48;101292.69;146616;605;48010;-78
2024/03/16 04:37:02;;;;;;;;;14.25;13.75;;;;;9.83;67.61;101293.66;146613;572;47012;-80
2024/03/16 04:40:04;;;;;;;;;12.50;11.25;;;;;9.79;67.50;101311.50;146619;592;46012;-76
2024/03/16 04:43:00;;;;;;;;;14.50;10.75;;;;;9.70;67.58;101310.12;146614;571;46016;-78
2024/03/16 04:46:04;;;;;;;;;13.75;12.75;;;;;9.63;67.79;101320.00;146621;612;45020;-78
2024/03/16 04:48:59;;;;;;;;;12.75;10.75;;;;;9.56;68.32;101310.03;146617;564;47017;-77
2024/03/16 04:51:56;;;;;;;;;16.75;12.50;;;;;9.50;68.71;101307.94;146620;569;46010;-78
2024/03/16 04:54:53;;;;;;;;;13.75;12.50;;;;;9.46;68.61;101311.13;146615;624;46027;-78
2024/03/16 04:58:08;;;;;;;;;14.00;12.00;;;;;9.48;68.65;101312.13;146619;569;46029;-78
2024/03/16 05:01:09;;;;;;;;;13.50;10.50;;;;;9.50;68.89;101320.88;146618;563;46012;-76
2024/03/16 05:04:14;;;;;;;;;12.50;9.50;;;;;9.01;68.70;101224.53;146620;592;46012;-78
2024/03/16 05:07:26;;;;;;;;;13.50;13.00;;;;;7.13;68.93;100884.87;146617;566;47012;-78
2024/03/16 05:10:30;;;;;;;;;12.75;11.00;;;;;9.66;69.31;101310.72;146618;583;47010;-80
2024/03/16 05:13:28;;;;;;;;;16.00;12.75;;;;;9.72;70.80;101302.47;146618;565;46012;-80
2024/03/16 05:16:36;;;;;;;;;12.50;10.75;;;;;10.09;71.58;101312.53;146616;732;47013;-75
2024/03/16 05:19:29;;;;;;;;;15.75;13.75;;;;;10.51;72.46;101311.72;146614;644;46016;-73
2024/03/16 05:22:46;;;;;;;;;14.00;12.75;;;;;11.38;72.82;101309.91;146617;582;46010;-76
2024/03/16 05:26:05;;;;;;;;;;;;;;;;;;;;;
2024/03/16 05:29:06;;;;;;;;;12.50;11.50;;;;;13.11;67.98;101311.44;146618;642;46012;-76
2024/03/16 05:32:07;;;;;;;;;14.50;11.25;;;;;13.85;63.29;101316.84;146616;600;46017;-75
2024/03/16 05:35:13;;;;;;;;;10.00;10.00;;;;;14.41;60.08;101315.06;146617;564;46010;-76
2024/03/16 05:38:27;;;;;;;;;15.50;11.75;;;;;14.91;56.72;101313.81;146614;570;46016;-73
2024/03/16 05:41:24;;;;;;;;;15.75;12.50;;;;;15.25;57.70;101317.88;146621;681;46020;-76
2024/03/16 05:44:28;;;;;;;;;20.00;16.75;;;;;15.60;57.34;101308.84;146613;579;47012;-76
2024/03/16 05:47:52;;;;;;;;;13.50;13.00;;;;;16.00;55.05;101314.78;146615;604;47020;-75
2024/03/16 05:51:00;;;;;;;;;14.00;12.75;;;;;16.14;54.00;101314.50;146615;569;46012;-80
2024/03/16 05:54:04;;;;;;;;;16.25;14.25;;;;;16.27;54.32;101318.47;146615;602;47012;-80
2024/03/16 05:57:12;;;;;;;;;16.00;14.25;;;;;14.37;52.31;100970.50;146615;574;47012;-75
2024/03/16 06:00:19;;;;;;;;;21.50;20.50;;;;;16.43;51.81;101334.75;146611;641;46020;-72
2024/03/16 06:03:16;;;;;;;;;27.50;25.00;;;;;16.35;51.61;101330.12;146614;575;46016;-76
2024/03/16 06:06:16;;;;;;;;;25.75;24.00;;;;;16.25;51.58;101338.44;146619;569;46010;-75
2024/03/16 06:09:15;;;;;;;;;26.75;24.00;;;;;16.19;51.63;101338.19;146613;566;47012;-75
2024/03/16 06:12:27;;;;;;;;;22.00;19.50;;;;;16.17;52.12;101342.50;146616;609;47020;-74
2024/03/16 06:15:24;;;;;;;;;26.00;23.75;;;;;16.22;52.08;101346.16;146616;660;46017;-81
2024/03/16 06:18:39;;;;;;;;;30.00;26.25;;;;;16.26;51.22;101341.94;146617;578;46020;-81
2024/03/16 06:21:43;;;;;;;;;24.00;22.25;;;;;16.28;51.04;101348.13;146614;611;46012;-72
2024/03/16 06:24:41;;;;;;;;;29.00;26.25;;;;;16.26;51.43;101358.56;146618;609;46020;-75
2024/03/16 06:27:43;;;;;;;;;26.75;24.00;;;;;16.25;50.94;101358.47;146615;612;46014;-75
2024/03/16 06:30:39;;;;;;;;;27.00;21.50;;;;;16.24;51.88;101354.09;146618;705;46010;-83
2024/03/16 06:33:33;;;;;;;;;26.75;25.25;;;;;16.27;52.87;101356.81;146616;563;47025;-74
2024/03/16 06:36:32;;;;;;;;;25.75;24.00;;;;;16.27;52.32;101356.81;146617;563;46010;-75
2024/03/16 06:39:45;;;;;;;;;24.00;22.00;;;;;16.29;52.28;101360.38;146616;570;46013;-74
2024/03/16 06:42:51;;;;;;;;;25.50;22.75;;;;;16.36;53.04;101365.03;146615;597;48010;-79
2024/03/16 06:45:45;;;;;;;;;23.25;17.75;;;;;16.37;52.77;101370.31;146617;670;46013;-77
2024/03/16 06:48:44;;;;;;;;;27.25;23.75;;;;;16.26;53.55;101366.41;146620;641;46010;-79
2024/03/16 06:51:40;;;;;;;;;29.00;26.25;;;;;16.06;54.02;101357.78;146616;575;46015;-78
2024/03/16 06:54:40;;;;;;;;;37.00;30.75;;;;;15.91;54.17;101370.25;146618;585;46010;-76
2024/03/16 06:57:39;;;;;;;;;26.50;25.00;;;;;15.80;55.46;101382.00;146615;569;46016;-76
2024/03/16 07:00:47;;;;;;;;;23.25;21.00;;;;;15.80;54.37;101382.00;146616;644;46012;-77
2024/03/16 07:03:46;;;;;;;;;24.00;22.25;;;;;15.84;54.28;101376.06;146612;594;47012;-75
2024/03/16 07:06:48;;;;;;;;;30.50;24.75;;;;;15.99;54.25;101374.06;146608;629;46886;-77
2024/03/16 07:09:44;;;;;;;;;24.75;21.50;;;;;16.16;54.56;101375.59;146612;591;47042;-77
2024/03/16 07:12:50;;;;;;;;;27.25;23.75;;;;;16.44;53.21;101384.50;146618;577;46010;-77
2024/03/16 07:15:47;;;;;;;;;23.25;20.50;;;;;16.68;52.66;101388.91;146614;654;46017;-78
2024/03/16 07:18:40;;;;;;;;;17.25;17.00;;;;;16.85;52.09;101388.72;146616;615;47010;-77
2024/03/16 07:21:35;;;;;;;;;17.75;15.75;;;;;16.99;51.70;101394.44;146615;569;45038;-79
2024/03/16 07:24:47;;;;;;;;;18.75;18.50;;;;;17.04;51.96;101394.59;146614;696;47010;-77
2024/03/16 07:28:04;;;;;;;;;24.50;21.50;;;;;15.36;52.24;101067.47;146614;569;46012;-77
2024/03/16 07:31:06;;;;;;;;;20.00;18.25;;;;;17.41;52.10;101383.66;146616;567;46021;-77
2024/03/16 07:34:04;;;;;;;;;20.00;17.25;;;;;17.62;52.05;101379.97;146609;566;48030;-77
2024/03/16 07:37:09;;;;;;;;;21.50;19.25;;;;;17.74;51.88;101385.63;146614;581;46011;-78
2024/03/16 07:40:16;;;;;;;;;19.25;15.25;;;;;17.78;51.64;101374.41;146611;592;47016;-80
2024/03/16 07:43:23;;;;;;;;;19.50;17.50;;;;;17.81;51.14;101374.53;146617;649;46020;-77
2024/03/16 07:46:31;;;;;;;;;23.25;23.25;;;;;17.76;51.45;101387.47;146612;697;46014;-82
2024/03/16 07:50:05;;;;;;;;;24.25;19.00;;;;;17.67;51.99;101383.66;146617;600;46010;-78
2024/03/16 07:53:16;;;;;;;;;19.25;18.50;;;;;17.64;52.26;101391.44;146614;621;46912;-84
2024/03/16 07:56:15;;;;;;;;;22.25;17.50;;;;;17.61;53.20;101384.34;146619;570;46027;-78
2024/03/16 07:59:19;;;;;;;;;23.50;19.75;;;;;17.62;52.98;101388.75;146613;577;46016;-79
2024/03/16 08:02:28;;;;;;;;;21.00;16.50;;;;;15.80;52.52;101086.53;146615;582;47010;-80
2024/03/16 08:05:40;;;;;;;;;16.75;14.00;;;;;17.72;52.85;101392.53;146615;577;46029;-77
2024/03/16 08:08:46;;;;;;;;;9.00;7.75;;;;;17.73;52.57;101396.97;146622;610;45021;-80
2024/03/16 08:11:38;;;;;;;;;11.00;10.00;;;;;17.61;52.19;101391.31;146617;564;46016;-78
2024/03/16 08:14:46;;;;;;;;;6.50;6.50;;;;;17.38;53.04;101398.41;146618;606;47011;-77
2024/03/16 08:17:59;;;;;;;;;11.25;8.50;;;;;17.16;54.07;101388.91;146617;645;47913;-82
2024/03/16 08:21:07;;;;;;;;;9.25;9.00;;;;;16.97;54.19;101387.34;146620;724;46020;-78
2024/03/16 08:24:16;;;;;;;;;14.25;13.25;;;;;16.91;55.01;101380.16;146616;634;46012;-76
2024/03/16 08:27:13;;;;;;;;;14.25;12.50;;;;;16.97;55.83;101388.25;146614;653;48020;-79
2024/03/16 08:30:16;;;;;;;;;14.50;13.75;;;;;17.12;55.65;101390.53;146613;603;47013;-77
2024/03/16 08:33:23;;;;;;;;;21.00;18.00;;;;;17.18;55.46;101384.62;146616;565;47010;-77
2024/03/16 08:36:24;;;;;;;;;21.50;16.00;;;;;17.21;55.80;101374.25;146615;685;46016;-77
2024/03/16 08:39:20;;;;;;;;;16.75;16.75;;;;;17.35;55.51;101377.31;146617;601;46020;-78
2024/03/16 08:42:19;;;;;;;;;14.75;12.50;;;;;17.48;54.91;101377.81;146614;638;46041;-79
2024/03/16 08:45:15;;;;;;;;;21.00;17.50;;;;;17.75;54.44;101375.19;146615;584;46020;-78
2024/03/16 08:48:17;;;;;;;;;19.00;15.75;;;;;18.08;55.53;101371.88;146614;573;46012;-78
2024/03/16 08:51:19;;;;;;;;;24.75;20.75;;;;;18.31;53.22;101369.94;146615;602;46021;-78
2024/03/16 08:54:24;;;;;;;;;23.75;17.25;;;;;18.45;52.98;101375.63;146612;618;46016;-77
2024/03/16 08:57:37;;;;;;;;;21.25;19.00;;;;;18.62;52.48;101377.00;146616;573;46020;-79
2024/03/16 09:00:31;;;;;;;;;19.25;17.75;;;;;18.71;53.46;101373.75;146612;582;46017;-81
2024/03/16 09:03:31;;;;;;;;;19.75;17.75;;;;;18.77;54.43;101371.31;146615;617;46010;-80
2024/03/16 09:06:52;;;;;;;;;20.75;19.50;;;;;18.89;52.55;101376.03;146613;736;46016;-79
2024/03/16 09:09:45;;;;;;;;;23.75;20.25;;;;;18.92;52.54;101369.13;146619;657;46010;-78
2024/03/16 09:12:42;;;;;;;;;24.75;20.00;;;;;18.99;52.76;101374.53;146611;603;46016;-78
2024/03/16 09:16:04;;;;;;;;;20.50;20.00;;;;;19.14;53.40;101364.44;146614;569;46020;-78
2024/03/16 09:19:16;;;;;;;;;21.75;19.75;;;;;19.37;51.40;101372.91;146613;571;46012;-77
2024/03/16 09:22:27;;;;;;;;;21.25;17.00;;;;;19.54;50.69;101368.09;146617;641;45021;-77
2024/03/16 09:25:31;;;;;;;;;17.75;15.25;;;;;19.65;50.79;101363.13;146612;571;46911;-77
2024/03/16 09:28:29;;;;;;;;;15.25;13.75;;;;;19.68;50.39;101352.69;146619;569;45021;-80
2024/03/16 09:31:27;;;;;;;;;15.75;14.50;;;;;19.67;50.70;101354.44;146615;595;46012;-80
2024/03/16 09:34:20;;;;;;;;;16.00;14.00;;;;;19.62;50.44;101364.81;146616;598;46012;-78
2024/03/16 09:37:24;;;;;;;;;18.50;16.25;;;;;19.66;50.99;101357.91;146611;572;46016;-78
2024/03/16 09:40:26;;;;;;;;;20.50;18.50;;;;;19.76;49.04;101359.91;146618;593;46020;-77
2024/03/16 09:43:31;;;;;;;;;15.50;14.25;;;;;19.87;48.73;101349.63;146614;570;46012;-79
2024/03/16 09:46:45;;;;;;;;;15.75;15.50;;;;;19.98;49.82;101349.88;146615;574;46020;-78
2024/03/16 09:49:54;;;;;;;;;17.00;17.00;;;;;20.04;47.32;101352.66;146613;667;46016;-78
2024/03/16 09:52:56;;;;;;;;;12.75;12.00;;;;;19.12;49.30;101211.94;146616;581;47020;-78
2024/03/16 09:55:56;;;;;;;;;13.25;10.75;;;;;19.86;49.83;101342.59;146615;591;46012;-77
2024/03/16 09:58:59;;;;;;;;;11.50;7.25;;;;;19.86;49.91;101342.59;146617;619;46031;-74
2024/03/16 10:01:53;;;;;;;;;14.75;12.50;;;;;19.88;49.26;101343.53;146618;644;46024;-80
2024/03/16 10:05:20;;;;;;;;;11.25;11.25;;;;;19.90;50.01;101341.78;146617;641;46011;-77
2024/03/16 10:08:20;;;;;;;;;12.50;11.25;;;;;20.01;48.65;101331.53;146616;618;46016;-79
2024/03/16 10:11:21;;;;;;;;;15.50;15.50;;;;;20.09;49.86;101329.94;146618;629;46010;-78
2024/03/16 10:14:25;;;;;;;;;13.00;12.00;;;;;20.17;47.31;101330.12;146614;648;46016;-78
2024/03/16 10:17:20;;;;;;;;;11.25;11.00;;;;;20.22;47.08;101326.72;146617;626;46020;-79
2024/03/16 10:20:30;;;;;;;;;12.00;12.00;;;;;20.31;46.43;101320.75;146616;582;46012;-81
2024/03/16 10:23:35;;;;;;;;;12.00;10.00;;;;;20.26;42.52;101320.66;146612;633;46020;-78
2024/03/16 10:26:32;;;;;;;;;13.00;12.00;;;;;20.21;45.84;101318.78;146615;592;46033;-79
2024/03/16 10:29:29;;;;;;;;;9.67;9.00;;;;;20.27;44.94;101314.53;146620;576;46010;-79
2024/03/16 10:32:43;;;;;;;;;;;;;;;;;;;;;
2024/03/16 10:35:56;;;;;;;;;12.00;12.00;;;;;20.53;45.09;101315.13;146617;642;46013;-81
2024/03/16 10:39:02;;;;;;;;;10.75;9.00;;;;;20.68;42.42;101317.12;146615;571;46016;-78
2024/03/16 10:42:18;;;;;;;;;12.25;9.50;;;;;20.41;42.64;101316.59;146620;564;46021;-77
2024/03/16 10:45:20;;;;;;;;;12.25;11.00;;;;;20.04;45.20;101302.63;146615;585;46913;-79
2024/03/16 10:48:20;;;;;;;;;9.00;9.00;;;;;19.96;43.25;101302.44;146623;593;46010;-78
2024/03/16 10:51:30;;;;;;;;;13.25;9.50;;;;;20.05;48.71;101299.13;146618;695;47012;-76
2024/03/16 10:54:47;;;;;;;;;10.25;9.00;;;;;20.33;45.73;101295.34;146622;607;46010;-78
2024/03/16 10:58:06;;;;;;;;;12.50;9.75;;;;;18.82;47.04;101008.91;146614;618;46017;-78
2024/03/16 11:01:15;;;;;;;;;9.75;9.25;;;;;20.68;44.11;101295.19;146621;585;46010;-79
2024/03/16 11:04:34;;;;;;;;;10.25;10.25;;;;;18.82;45.66;100969.50;146616;566;46016;-80
2024/03/16 11:08:07;;;;;;;;;13.75;11.75;;;;;20.52;44.21;101305.41;146618;650;46020;-80
2024/03/16 11:10:59;;;;;;;;;9.00;9.00;;;;;20.24;42.54;101287.25;146616;573;46017;-75
2024/03/16 11:14:29;;;;;;;;;10.50;8.75;;;;;18.95;45.84;101121.28;146619;606;47028;-80
2024/03/16 11:17:47;;;;;;;;;8.50;8.50;;;;;19.55;46.96;101278.69;146616;734;47012;-82
2024/03/16 11:20:57;;;;;;;;;10.25;8.25;;;;;19.25;46.18;101273.59;146615;565;48012;-81
2024/03/16 11:24:09;;;;;;;;;8.00;8.00;;;;;18.95;48.24;101276.34;146617;630;46030;-75
2024/03/16 11:27:12;;;;;;;;;11.50;10.00;;;;;18.69;48.13;101270.34;146620;680;47010;-79
2024/03/16 11:30:26;;;;;;;;;11.75;11.00;;;;;18.65;48.28;101265.88;146615;663;47012;-76
2024/03/16 11:33:23;;;;;;;;;10.00;8.75;;;;;18.85;48.45;101269.09;146616;705;46011;-78
2024/03/16 11:36:23;;;;;;;;;11.00;9.00;;;;;19.09;48.16;101263.53;146615;578;47914;-79
2024/03/16 11:39:27;;;;;;;;;12.25;10.75;;;;;19.46;48.08;101259.19;146617;621;47010;-80
2024/03/16 11:42:35;;;;;;;;;9.75;9.75;;;;;19.77;47.76;101255.53;146606;680;47013;-79
2024/03/16 11:45:39;;;;;;;;;20.00;20.00;;;;;19.79;47.61;101249.47;146621;625;46012;-79
2024/03/16 11:48:48;;;;;;;;;12.50;11.75;;;;;19.64;47.26;101251.75;146611;577;47915;-78
2024/03/16 11:51:58;;;;;;;;;;;;;;;;;;;;;
2024/03/16 11:54:59;;;;;;;;;14.25;13.25;;;;;19.07;49.11;101246.87;146606;570;48910;-77
2024/03/16 11:57:57;;;;;;;;;11.00;10.00;;;;;18.84;49.67;101251.50;146615;674;47010;-79
2024/03/16 12:00:56;;;;;;;;;12.75;9.75;;;;;18.62;49.36;101253.53;146613;592;47012;-78
2024/03/16 12:03:58;;;;;;;;;11.50;10.75;;;;;18.51;50.05;101251.50;146618;595;46011;-80
2024/03/16 12:07:01;;;;;;;;;10.75;9.25;;;;;18.39;50.79;101252.91;146615;643;46012;-78
2024/03/16 12:09:57;;;;;;;;;10.00;10.00;;;;;18.43;50.62;101252.16;146616;576;47010;-78
2024/03/16 12:13:06;;;;;;;;;11.50;9.25;;;;;18.56;51.97;101247.22;146614;623;46016;-79
2024/03/16 12:16:00;;;;;;;;;10.75;10.75;;;;;18.70;50.98;101246.75;146618;625;46025;-78
2024/03/16 12:18:54;;;;;;;;;11.75;11.00;;;;;18.75;51.16;101241.66;146613;565;47013;-79
2024/03/16 12:21:49;;;;;;;;;16.50;16.50;;;;;18.69;51.35;101239.75;146621;625;47010;-78
2024/03/16 12:24:46;;;;;;;;;15.25;12.00;;;;;18.60;51.16;101236.87;146613;695;46017;-79
2024/03/16 12:27:48;;;;;;;;;10.25;10.00;;;;;18.51;51.98;101236.63;146615;678;47012;-80
2024/03/16 12:30:41;;;;;;;;;16.25;13.50;;;;;17.59;51.81;101073.09;146611;569;47012;-80
2024/03/16 12:33:42;;;;;;;;;11.25;9.75;;;;;18.35;52.78;101232.69;146616;622;46012;-79
2024/03/16 12:36:52;;;;;;;;;17.50;17.25;;;;;18.27;53.60;101218.44;146614;585;46024;-78
2024/03/16 12:40:06;;;;;;;;;17.50;13.25;;;;;18.24;53.68;101214.00;146613;583;47010;-79
2024/03/16 12:43:08;;;;;;;;;12.75;12.00;;;;;18.09;53.46;101210.94;146612;611;46016;-79
2024/03/16 12:46:09;;;;;;;;;15.50;11.75;;;;;17.96;54.42;101221.94;146614;602;47020;-78
2024/03/16 12:49:11;;;;;;;;;18.00;15.00;;;;;17.11;54.94;101100.53;146614;570;46016;-76
2024/03/16 12:52:09;;;;;;;;;20.00;17.75;;;;;17.81;55.65;101213.63;146614;577;47010;-78
2024/03/16 12:55:16;;;;;;;;;14.00;13.75;;;;;17.89;56.00;101212.13;146612;582;47035;-79
2024/03/16 12:58:18;;;;;;;;;13.25;11.00;;;;;17.99;55.99;101207.16;146615;629;47020;-78
2024/03/16 13:01:38;;;;;;;;;12.00;11.00;;;;;16.09;55.27;100859.97;146618;632;46012;-81
2024/03/16 13:04:30;;;;;;;;;14.50;12.00;;;;;16.63;56.62;100941.00;146616;589;47021;-82
2024/03/16 13:07:34;;;;;;;;;11.25;10.25;;;;;18.22;55.86;101193.81;146613;625;47016;-78
2024/03/16 13:10:34;;;;;;;;;14.50;10.75;;;;;18.36;55.41;101196.81;146616;581;46021;-82
2024/03/16 13:13:30;;;;;;;;;13.25;11.25;;;;;18.34;55.71;101198.50;146612;587;47012;-78
2024/03/16 13:16:29;;;;;;;;;15.25;11.00;;;;;18.30;54.59;101196.66;146616;602;46020;-78
2024/03/16 13:19:28;;;;;;;;;8.75;8.50;;;;;18.16;55.71;101196.25;146613;655;47016;-78
2024/03/16 13:22:22;;;;;;;;;9.00;9.00;;;;;18.18;56.84;101199.81;146620;645;47010;-78
2024/03/16 13:25:16;;;;;;;;;12.25;11.25;;;;;18.30;56.58;101194.91;146616;660;46017;-79
2024/03/16 13:28:13;;;;;;;;;12.50;11.75;;;;;18.45;56.40;101183.94;146617;578;46020;-81
2024/03/16 13:31:15;;;;;;;;;9.75;9.75;;;;;18.46;55.90;101172.56;146615;597;46016;-79
2024/03/16 13:34:09;;;;;;;;;10.75;10.00;;;;;18.18;55.82;101189.31;146618;611;47012;-78
2024/03/16 13:37:06;;;;;;;;;8.75;8.25;;;;;18.08;56.99;101174.19;146615;606;46016;-76
2024/03/16 13:40:02;;;;;;;;;12.25;10.50;;;;;18.00;56.66;101177.44;146615;589;46021;-78
2024/03/16 13:43:16;;;;;;;;;12.25;11.50;;;;;17.92;57.11;101191.22;146614;563;46035;-80
2024/03/16 13:46:18;;;;;;;;;11.25;11.25;;;;;17.95;56.32;101176.47;146615;587;47013;-77
2024/03/16 13:49:16;;;;;;;;;14.75;12.50;;;;;17.98;57.41;101173.91;146614;580;47014;-76
2024/03/16 13:52:15;;;;;;;;;13.25;12.75;;;;;18.01;56.89;101170.50;146618;620;46010;-80
2024/03/16 17:03:45;;;;;;;;;12.75;12.75;;;;;14.95;72.16;101197.34;146637;589;47010;-78
2024/03/16 17:06:37;;;;;;;;;16.50;13.75;;;;;14.91;72.28;101198.03;146614;706;46016;-79
2024/03/16 17:09:36;;;;;;;;;12.75;10.50;;;;;14.94;71.08;101204.28;146616;573;47008;-79
2024/03/16 17:12:33;;;;;;;;;12.00;10.00;;;;;14.94;71.41;101203.41;146615;637;46016;-80
2024/03/16 17:15:26;;;;;;;;;13.25;9.00;;;;;14.91;72.14;101203.25;146620;572;47010;-80